• Join FlightAware (Why Join?)
  • Login
  • US Flag 
08:46AM EDT


 

Airport Tracker/Info


-or-


 

Live Flight TrackerFlight Track Log ✈ N911PS ✈ 02-Oct-2013 ✈ KFIG - 2G9

Flight Track Log - Related Links

Times and Time Zones

All times are in EDT time to prevent confusion due to time zone crossing. See the N911PS flight status page for this flight to view local times or setup timezone preferences in your user account.

Time Position Orientation Groundspeed Altitude Reporting Facility
EDT Latitude Longitude Course Direction KTS MPH feet Rate Location/Type
04:57PM 40.9867 -78.4511 189° South 89 102 3,500  Level Cleveland Center
04:58PM 40.9606 -78.4567 189° South 94 108 3,900 300 Climbing Cleveland Center
04:59PM 40.9306 -78.4708 200° South 108 124 4,200 180 Climbing Cleveland Center
05:00PM 40.9017 -78.4619 167° South 121 139 4,300 60 Climbing Cleveland Center
05:02PM 40.8797 -78.5000 180° South  Level FlightAware Approximate
05:09PM 40.7243 -78.5940 203° Southwest  Level FlightAware Approximate
05:10PM 40.7015 -78.6066 203° Southwest  Level FlightAware Approximate
05:11PM 40.6787 -78.6194 204° Southwest  Level FlightAware Approximate
05:12PM 40.6562 -78.6329 204° Southwest  Level FlightAware Approximate
05:13PM 40.6337 -78.6463 204° Southwest  Level FlightAware Approximate
05:14PM 40.6111 -78.6597 204° Southwest  Level FlightAware Approximate
05:15PM 40.5886 -78.6732 204° Southwest  Level FlightAware Approximate
05:16PM 40.5660 -78.6866 204° Southwest  Level FlightAware Approximate
05:17PM 40.5435 -78.7000 204° Southwest  Level FlightAware Approximate
05:18PM 40.5209 -78.7134 204° Southwest  Level FlightAware Approximate
05:19PM 40.4984 -78.7267 204° Southwest  Level FlightAware Approximate
05:20PM 40.4758 -78.7401 204° Southwest  Level FlightAware Approximate
05:21PM 40.4533 -78.7535 204° Southwest  Level FlightAware Approximate
05:22PM 40.4307 -78.7669 204° Southwest  Level FlightAware Approximate
05:23PM 40.4082 -78.7802 204° Southwest  Level FlightAware Approximate
05:24PM 40.3856 -78.7935 204° Southwest  Level FlightAware Approximate
05:25PM 40.3630 -78.8069 204° Southwest  Level FlightAware Approximate
05:26PM 40.3405 -78.8202 204° Southwest  Level FlightAware Approximate
05:27PM 40.3179 -78.8335 204° Southwest  Level FlightAware Approximate
05:28PM 40.2954 -78.8468 204° Southwest  Level FlightAware Approximate
05:29PM 40.2728 -78.8601 204° Southwest  Level FlightAware Approximate
05:30PM 40.2502 -78.8734 204° Southwest  Level FlightAware Approximate
05:31PM 40.2280 -78.8874 210° Southwest  Level FlightAware Approximate
05:32PM 40.2065 -78.9035 210° Southwest  Level FlightAware Approximate
05:33PM 40.1850 -78.9196 210° Southwest  Level FlightAware Approximate
05:34PM 40.1633 -78.9350 201° Southwest  Level FlightAware Approximate
05:35PM 40.1402 -78.9466 201° Southwest  Level FlightAware Approximate
05:36PM 40.1171 -78.9581 201° Southwest  Level FlightAware Approximate
05:37PM 40.0940 -78.9697 201° Southwest  Level FlightAware Approximate
05:38PM 40.0709 -78.9812 201° Southwest  Level FlightAware Approximate
05:39PM 40.0478 -78.9928 201° Southwest  Level FlightAware Approximate
05:40PM 40.0333 -79.0000 201° Southwest  Level FlightAware Approximate
05:41PM 40.0389 -79.0150 201° Southwest  Level Estimated
05:42PM 40.0389 -79.0150 201° Southwest  Level Estimated
05:43PM 40.0389 -79.0150 201° Southwest  Level Estimated
05:44PM 40.0389 -79.0150 201° Southwest  Level Estimated
05:45PM 40.0389 -79.0150 201° Southwest  Level Estimated
05:46PM 40.0389 -79.0150 201° Southwest  Level Estimated
05:47PM 40.0389 -79.0150 201° Southwest  Level Estimated
05:48PM 40.0389 -79.0150 201° Southwest  Level Estimated
05:49PM 40.0389 -79.0150 201° Southwest  Level Estimated
05:50PM 40.0389 -79.0150 201° Southwest  Level Estimated
05:51PM 40.0389 -79.0150 201° Southwest  Level Estimated
05:52PM 40.0389 -79.0150 201° Southwest  Level Estimated
05:53PM 40.0389 -79.0150 201° Southwest  Level Estimated
05:54PM 40.0389 -79.0150 201° Southwest  Level Estimated
05:55PM 40.0389 -79.0150 201° Southwest  Level Estimated
05:56PM 40.0389 -79.0150 201° Southwest  Level Estimated
05:57PM 40.0389 -79.0150 201° Southwest  Level Estimated
05:58PM 40.0389 -79.0150 201° Southwest  Level Estimated